Haifa, Israel
Current Conditions -  °F | °C
As of 8:50 AM on Saturday 29 Nov 2014 (Local Time) from LLSD Reporting Station
Few Clouds Few Clouds  
Wind Chill: 63°   Ceiling: Unl
Heat Index: 63°   Visibility: 6mi
Dew Point: 54°   Wind: 5mph
Humidity: 72%   Direction: 90°E
Pressure: 30.24"   Gusts: NA
Location:  32.82°N, 34.99°E
Report Text: LLSD 290650Z 09004KT 030V120 9999 FEW030 17/12 Q1024
Loading
Personal Weather Stations






























Interactive Weather Map New forecast layout! Learn more

10-Day Weather Forecast

Advertisements
Track Severe Weather on mobile